sensor_id;sensor_type;location;lat;lon;timestamp;P1;durP1;ratioP1;P2;durP2;ratioP2
11039;SDS011;5573;49.592;8.662;2024-03-17T00:02:23;29.73;;;28.20;;
11039;SDS011;5573;49.592;8.662;2024-03-17T00:04:50;28.87;;;27.37;;
11039;SDS011;5573;49.592;8.662;2024-03-17T00:07:17;28.97;;;27.47;;
11039;SDS011;5573;49.592;8.662;2024-03-17T00:09:44;30.60;;;29.00;;
11039;SDS011;5573;49.592;8.662;2024-03-17T00:12:10;32.03;;;30.43;;
11039;SDS011;5573;49.592;8.662;2024-03-17T00:14:37;32.77;;;31.10;;
11039;SDS011;5573;49.592;8.662;2024-03-17T00:17:04;34.80;;;33.03;;
11039;SDS011;5573;49.592;8.662;2024-03-17T00:19:31;33.73;;;32.00;;
11039;SDS011;5573;49.592;8.662;2024-03-17T00:21:57;36.13;;;34.30;;
11039;SDS011;5573;49.592;8.662;2024-03-17T00:24:26;37.77;;;35.83;;
11039;SDS011;5573;49.592;8.662;2024-03-17T00:27:00;35.73;;;33.90;;
11039;SDS011;5573;49.592;8.662;2024-03-17T00:29:27;39.10;;;37.10;;
11039;SDS011;5573;49.592;8.662;2024-03-17T00:31:53;34.93;;;33.17;;
11039;SDS011;5573;49.592;8.662;2024-03-17T00:34:20;38.20;;;36.27;;
11039;SDS011;5573;49.592;8.662;2024-03-17T00:36:46;37.20;;;35.30;;
11039;SDS011;5573;49.592;8.662;2024-03-17T00:39:13;34.23;;;32.50;;
11039;SDS011;5573;49.592;8.662;2024-03-17T00:41:41;38.47;;;36.47;;
11039;SDS011;5573;49.592;8.662;2024-03-17T00:44:08;37.23;;;35.33;;
11039;SDS011;5573;49.592;8.662;2024-03-17T00:46:33;38.47;;;36.50;;
11039;SDS011;5573;49.592;8.662;2024-03-17T00:49:00;37.13;;;35.23;;
11039;SDS011;5573;49.592;8.662;2024-03-17T00:51:26;37.80;;;35.87;;
11039;SDS011;5573;49.592;8.662;2024-03-17T00:53:53;42.47;;;40.27;;
11039;SDS011;5573;49.592;8.662;2024-03-17T00:56:22;39.50;;;37.27;;
11039;SDS011;5573;49.592;8.662;2024-03-17T00:58:50;36.00;;;34.13;;
11039;SDS011;5573;49.592;8.662;2024-03-17T01:01:17;40.37;;;38.30;;
11039;SDS011;5573;49.592;8.662;2024-03-17T01:03:45;40.67;;;38.57;;
11039;SDS011;5573;49.592;8.662;2024-03-17T01:06:10;40.17;;;38.10;;
11039;SDS011;5573;49.592;8.662;2024-03-17T01:08:38;41.23;;;39.03;;
11039;SDS011;5573;49.592;8.662;2024-03-17T01:11:03;36.73;;;34.83;;
11039;SDS011;5573;49.592;8.662;2024-03-17T01:13:34;35.17;;;33.33;;
11039;SDS011;5573;49.592;8.662;2024-03-17T01:16:02;34.80;;;32.97;;
11039;SDS011;5573;49.592;8.662;2024-03-17T01:18:29;35.97;;;34.17;;
11039;SDS011;5573;49.592;8.662;2024-03-17T01:20:55;37.17;;;35.27;;
11039;SDS011;5573;49.592;8.662;2024-03-17T01:23:22;33.47;;;31.77;;
11039;SDS011;5573;49.592;8.662;2024-03-17T01:25:48;36.83;;;34.97;;
11039;SDS011;5573;49.592;8.662;2024-03-17T01:28:15;34.63;;;32.87;;
11039;SDS011;5573;49.592;8.662;2024-03-17T01:30:42;33.87;;;32.17;;
11039;SDS011;5573;49.592;8.662;2024-03-17T01:33:09;35.40;;;33.60;;
11039;SDS011;5573;49.592;8.662;2024-03-17T01:35:37;35.40;;;33.60;;
11039;SDS011;5573;49.592;8.662;2024-03-17T01:38:03;36.80;;;34.90;;
11039;SDS011;5573;49.592;8.662;2024-03-17T01:40:30;33.43;;;31.73;;
11039;SDS011;5573;49.592;8.662;2024-03-17T01:42:57;34.40;;;32.63;;
11039;SDS011;5573;49.592;8.662;2024-03-17T01:45:27;31.17;;;29.57;;
11039;SDS011;5573;49.592;8.662;2024-03-17T01:47:55;29.83;;;28.33;;
11039;SDS011;5573;49.592;8.662;2024-03-17T01:50:25;32.77;;;31.10;;
11039;SDS011;5573;49.592;8.662;2024-03-17T01:52:55;30.80;;;29.23;;
11039;SDS011;5573;49.592;8.662;2024-03-17T01:55:25;31.03;;;29.47;;
11039;SDS011;5573;49.592;8.662;2024-03-17T01:57:53;28.57;;;27.13;;
11039;SDS011;5573;49.592;8.662;2024-03-17T02:00:19;33.20;;;31.53;;
11039;SDS011;5573;49.592;8.662;2024-03-17T02:02:47;34.33;;;32.57;;
11039;SDS011;5573;49.592;8.662;2024-03-17T02:05:13;30.93;;;29.37;;
11039;SDS011;5573;49.592;8.662;2024-03-17T02:07:41;29.50;;;28.00;;
11039;SDS011;5573;49.592;8.662;2024-03-17T02:10:07;27.60;;;26.23;;
11039;SDS011;5573;49.592;8.662;2024-03-17T02:12:35;30.63;;;29.10;;
11039;SDS011;5573;49.592;8.662;2024-03-17T02:15:02;28.43;;;26.93;;
11039;SDS011;5573;49.592;8.662;2024-03-17T02:17:30;28.50;;;27.03;;
11039;SDS011;5573;49.592;8.662;2024-03-17T02:19:57;30.77;;;29.17;;
11039;SDS011;5573;49.592;8.662;2024-03-17T02:22:25;28.53;;;27.10;;
11039;SDS011;5573;49.592;8.662;2024-03-17T02:24:53;30.20;;;28.63;;
11039;SDS011;5573;49.592;8.662;2024-03-17T02:27:20;28.30;;;26.90;;
11039;SDS011;5573;49.592;8.662;2024-03-17T02:29:45;29.60;;;28.10;;
11039;SDS011;5573;49.592;8.662;2024-03-17T02:32:12;30.83;;;29.27;;
11039;SDS011;5573;49.592;8.662;2024-03-17T02:34:39;31.20;;;29.60;;
11039;SDS011;5573;49.592;8.662;2024-03-17T02:37:06;34.57;;;32.77;;
11039;SDS011;5573;49.592;8.662;2024-03-17T02:39:34;30.47;;;28.93;;
11039;SDS011;5573;49.592;8.662;2024-03-17T02:42:01;29.73;;;28.23;;
11039;SDS011;5573;49.592;8.662;2024-03-17T02:44:29;29.63;;;28.13;;
11039;SDS011;5573;49.592;8.662;2024-03-17T02:46:56;30.03;;;28.53;;
11039;SDS011;5573;49.592;8.662;2024-03-17T02:49:24;32.47;;;30.80;;
11039;SDS011;5573;49.592;8.662;2024-03-17T02:51:52;29.90;;;28.40;;
11039;SDS011;5573;49.592;8.662;2024-03-17T02:54:19;33.07;;;31.40;;
11039;SDS011;5573;49.592;8.662;2024-03-17T02:56:47;32.07;;;30.47;;
11039;SDS011;5573;49.592;8.662;2024-03-17T02:59:14;31.80;;;30.20;;
11039;SDS011;5573;49.592;8.662;2024-03-17T03:01:41;31.00;;;29.43;;
11039;SDS011;5573;49.592;8.662;2024-03-17T03:04:08;30.60;;;29.03;;
11039;SDS011;5573;49.592;8.662;2024-03-17T03:06:35;31.20;;;29.60;;
11039;SDS011;5573;49.592;8.662;2024-03-17T03:09:02;31.73;;;30.10;;
11039;SDS011;5573;49.592;8.662;2024-03-17T03:11:30;32.30;;;30.67;;
11039;SDS011;5573;49.592;8.662;2024-03-17T03:13:59;32.10;;;30.40;;
11039;SDS011;5573;49.592;8.662;2024-03-17T03:16:25;32.93;;;31.27;;
11039;SDS011;5573;49.592;8.662;2024-03-17T03:18:52;33.70;;;31.93;;
11039;SDS011;5573;49.592;8.662;2024-03-17T03:21:19;34.53;;;32.77;;
11039;SDS011;5573;49.592;8.662;2024-03-17T03:23:47;33.30;;;31.60;;
11039;SDS011;5573;49.592;8.662;2024-03-17T03:26:14;35.07;;;33.27;;
11039;SDS011;5573;49.592;8.662;2024-03-17T03:28:41;34.37;;;32.63;;
11039;SDS011;5573;49.592;8.662;2024-03-17T03:31:11;36.30;;;34.40;;
11039;SDS011;5573;49.592;8.662;2024-03-17T03:33:39;34.73;;;32.97;;
11039;SDS011;5573;49.592;8.662;2024-03-17T03:36:07;35.37;;;33.57;;
11039;SDS011;5573;49.592;8.662;2024-03-17T03:38:36;32.93;;;31.27;;
11039;SDS011;5573;49.592;8.662;2024-03-17T03:41:06;34.83;;;32.97;;
11039;SDS011;5573;49.592;8.662;2024-03-17T03:43:34;32.27;;;30.60;;
11039;SDS011;5573;49.592;8.662;2024-03-17T03:46:01;33.47;;;31.77;;
11039;SDS011;5573;49.592;8.662;2024-03-17T03:48:30;33.03;;;31.33;;
11039;SDS011;5573;49.592;8.662;2024-03-17T03:50:58;32.50;;;30.80;;
11039;SDS011;5573;49.592;8.662;2024-03-17T03:53:24;33.57;;;31.87;;
11039;SDS011;5573;49.592;8.662;2024-03-17T03:55:51;33.17;;;31.50;;
11039;SDS011;5573;49.592;8.662;2024-03-17T03:58:18;32.43;;;30.83;;
11039;SDS011;5573;49.592;8.662;2024-03-17T04:00:46;30.97;;;29.37;;
11039;SDS011;5573;49.592;8.662;2024-03-17T04:03:13;33.03;;;31.37;;
11039;SDS011;5573;49.592;8.662;2024-03-17T04:05:41;33.40;;;31.70;;
11039;SDS011;5573;49.592;8.662;2024-03-17T04:08:08;30.67;;;29.13;;
11039;SDS011;5573;49.592;8.662;2024-03-17T04:10:35;32.00;;;30.40;;
11039;SDS011;5573;49.592;8.662;2024-03-17T04:13:02;29.87;;;28.37;;
11039;SDS011;5573;49.592;8.662;2024-03-17T04:15:29;30.43;;;28.90;;
11039;SDS011;5573;49.592;8.662;2024-03-17T04:17:56;27.87;;;26.37;;
11039;SDS011;5573;49.592;8.662;2024-03-17T04:20:23;30.30;;;28.77;;
11039;SDS011;5573;49.592;8.662;2024-03-17T04:22:51;29.27;;;27.80;;
11039;SDS011;5573;49.592;8.662;2024-03-17T04:25:19;27.93;;;26.53;;
11039;SDS011;5573;49.592;8.662;2024-03-17T04:27:46;29.97;;;28.40;;
11039;SDS011;5573;49.592;8.662;2024-03-17T04:30:12;28.70;;;27.23;;
11039;SDS011;5573;49.592;8.662;2024-03-17T04:32:39;30.17;;;28.67;;
11039;SDS011;5573;49.592;8.662;2024-03-17T04:35:06;28.43;;;27.00;;
11039;SDS011;5573;49.592;8.662;2024-03-17T04:37:33;29.67;;;28.17;;
11039;SDS011;5573;49.592;8.662;2024-03-17T04:40:06;27.37;;;25.97;;
11039;SDS011;5573;49.592;8.662;2024-03-17T04:42:35;24.83;;;23.63;;
11039;SDS011;5573;49.592;8.662;2024-03-17T04:45:05;26.27;;;24.97;;
11039;SDS011;5573;49.592;8.662;2024-03-17T04:47:35;26.77;;;25.43;;
11039;SDS011;5573;49.592;8.662;2024-03-17T04:50:03;23.87;;;22.63;;
11039;SDS011;5573;49.592;8.662;2024-03-17T04:52:31;26.93;;;25.60;;
11039;SDS011;5573;49.592;8.662;2024-03-17T04:54:57;27.27;;;25.87;;
11039;SDS011;5573;49.592;8.662;2024-03-17T04:57:26;25.20;;;23.90;;
11039;SDS011;5573;49.592;8.662;2024-03-17T04:59:53;25.30;;;24.03;;
11039;SDS011;5573;49.592;8.662;2024-03-17T05:02:19;25.17;;;23.93;;
11039;SDS011;5573;49.592;8.662;2024-03-17T05:04:48;24.60;;;23.30;;
11039;SDS011;5573;49.592;8.662;2024-03-17T05:07:15;27.03;;;25.63;;
11039;SDS011;5573;49.592;8.662;2024-03-17T05:09:42;25.83;;;24.53;;
11039;SDS011;5573;49.592;8.662;2024-03-17T05:12:09;26.90;;;25.53;;
11039;SDS011;5573;49.592;8.662;2024-03-17T05:14:38;26.73;;;25.40;;
11039;SDS011;5573;49.592;8.662;2024-03-17T05:17:05;25.63;;;24.33;;
11039;SDS011;5573;49.592;8.662;2024-03-17T05:19:32;24.90;;;23.67;;
11039;SDS011;5573;49.592;8.662;2024-03-17T05:21:58;24.93;;;23.67;;
11039;SDS011;5573;49.592;8.662;2024-03-17T05:24:25;25.40;;;24.13;;
11039;SDS011;5573;49.592;8.662;2024-03-17T05:26:52;26.87;;;25.53;;
11039;SDS011;5573;49.592;8.662;2024-03-17T05:29:19;26.90;;;25.53;;
11039;SDS011;5573;49.592;8.662;2024-03-17T05:31:49;29.27;;;27.77;;
11039;SDS011;5573;49.592;8.662;2024-03-17T05:34:17;27.57;;;26.20;;
11039;SDS011;5573;49.592;8.662;2024-03-17T05:36:44;28.03;;;26.60;;
11039;SDS011;5573;49.592;8.662;2024-03-17T05:39:12;29.23;;;27.73;;
11039;SDS011;5573;49.592;8.662;2024-03-17T05:41:39;30.00;;;28.50;;
11039;SDS011;5573;49.592;8.662;2024-03-17T05:44:07;31.20;;;29.60;;
11039;SDS011;5573;49.592;8.662;2024-03-17T05:46:33;28.47;;;27.07;;
11039;SDS011;5573;49.592;8.662;2024-03-17T05:49:02;31.20;;;29.30;;
11039;SDS011;5573;49.592;8.662;2024-03-17T05:51:29;28.13;;;26.73;;
11039;SDS011;5573;49.592;8.662;2024-03-17T05:53:56;28.13;;;26.73;;
11039;SDS011;5573;49.592;8.662;2024-03-17T05:56:24;27.60;;;26.20;;
11039;SDS011;5573;49.592;8.662;2024-03-17T05:58:51;23.93;;;22.73;;
11039;SDS011;5573;49.592;8.662;2024-03-17T06:01:17;22.33;;;21.23;;
11039;SDS011;5573;49.592;8.662;2024-03-17T06:03:46;26.13;;;24.83;;
11039;SDS011;5573;49.592;8.662;2024-03-17T06:06:14;23.57;;;22.37;;
11039;SDS011;5573;49.592;8.662;2024-03-17T06:08:41;25.67;;;24.27;;
11039;SDS011;5573;49.592;8.662;2024-03-17T06:11:08;23.03;;;21.87;;
11039;SDS011;5573;49.592;8.662;2024-03-17T06:13:35;23.67;;;22.47;;
11039;SDS011;5573;49.592;8.662;2024-03-17T06:16:03;23.50;;;22.30;;
11039;SDS011;5573;49.592;8.662;2024-03-17T06:18:31;24.37;;;23.17;;
11039;SDS011;5573;49.592;8.662;2024-03-17T06:20:58;22.57;;;21.40;;
11039;SDS011;5573;49.592;8.662;2024-03-17T06:23:26;22.20;;;21.10;;
11039;SDS011;5573;49.592;8.662;2024-03-17T06:25:53;24.93;;;23.67;;
11039;SDS011;5573;49.592;8.662;2024-03-17T06:28:21;22.87;;;21.73;;
11039;SDS011;5573;49.592;8.662;2024-03-17T06:30:54;23.77;;;22.57;;
11039;SDS011;5573;49.592;8.662;2024-03-17T06:33:25;21.57;;;20.47;;
11039;SDS011;5573;49.592;8.662;2024-03-17T06:35:53;24.20;;;22.97;;
11039;SDS011;5573;49.592;8.662;2024-03-17T06:38:20;22.63;;;21.53;;
11039;SDS011;5573;49.592;8.662;2024-03-17T06:40:51;22.03;;;20.90;;
11039;SDS011;5573;49.592;8.662;2024-03-17T06:43:18;22.17;;;21.07;;
11039;SDS011;5573;49.592;8.662;2024-03-17T06:45:55;23.23;;;22.07;;
11039;SDS011;5573;49.592;8.662;2024-03-17T06:48:23;20.60;;;19.57;;
11039;SDS011;5573;49.592;8.662;2024-03-17T06:50:51;22.13;;;20.97;;
11039;SDS011;5573;49.592;8.662;2024-03-17T06:53:19;22.77;;;21.57;;
11039;SDS011;5573;49.592;8.662;2024-03-17T06:55:54;20.50;;;19.47;;
11039;SDS011;5573;49.592;8.662;2024-03-17T06:58:23;19.93;;;18.93;;
11039;SDS011;5573;49.592;8.662;2024-03-17T07:00:55;22.97;;;21.77;;
11039;SDS011;5573;49.592;8.662;2024-03-17T07:03:23;21.03;;;20.00;;
11039;SDS011;5573;49.592;8.662;2024-03-17T07:05:51;23.80;;;22.60;;
11039;SDS011;5573;49.592;8.662;2024-03-17T07:08:19;23.17;;;21.97;;
11039;SDS011;5573;49.592;8.662;2024-03-17T07:10:56;23.63;;;22.43;;
11039;SDS011;5573;49.592;8.662;2024-03-17T07:13:28;27.93;;;26.53;;
11039;SDS011;5573;49.592;8.662;2024-03-17T07:15:56;26.73;;;25.40;;
11039;SDS011;5573;49.592;8.662;2024-03-17T07:18:24;29.77;;;28.27;;
11039;SDS011;5573;49.592;8.662;2024-03-17T07:20:51;27.20;;;25.80;;
11039;SDS011;5573;49.592;8.662;2024-03-17T07:23:18;30.07;;;28.50;;
11039;SDS011;5573;49.592;8.662;2024-03-17T07:25:51;29.17;;;27.70;;
11039;SDS011;5573;49.592;8.662;2024-03-17T07:28:20;29.30;;;27.83;;
11039;SDS011;5573;49.592;8.662;2024-03-17T07:30:48;36.67;;;34.80;;
11039;SDS011;5573;49.592;8.662;2024-03-17T07:33:16;32.17;;;30.53;;
11039;SDS011;5573;49.592;8.662;2024-03-17T07:35:50;37.40;;;35.40;;
11039;SDS011;5573;49.592;8.662;2024-03-17T07:38:17;37.23;;;35.37;;
11039;SDS011;5573;49.592;8.662;2024-03-17T07:40:46;36.17;;;34.33;;
11039;SDS011;5573;49.592;8.662;2024-03-17T07:43:24;36.60;;;34.73;;
11039;SDS011;5573;49.592;8.662;2024-03-17T07:45:59;38.20;;;36.25;;
11039;SDS011;5573;49.592;8.662;2024-03-17T07:48:26;37.28;;;35.35;;
11039;SDS011;5573;49.592;8.662;2024-03-17T07:50:54;38.63;;;36.63;;
11039;SDS011;5573;49.592;8.662;2024-03-17T07:53:22;41.40;;;39.20;;
11039;SDS011;5573;49.592;8.662;2024-03-17T07:55:56;44.03;;;41.78;;
11039;SDS011;5573;49.592;8.662;2024-03-17T07:58:26;43.35;;;41.10;;
11039;SDS011;5573;49.592;8.662;2024-03-17T08:00:56;45.03;;;42.60;;
11039;SDS011;5573;49.592;8.662;2024-03-17T08:03:25;44.70;;;42.38;;
11039;SDS011;5573;49.592;8.662;2024-03-17T08:05:52;46.92;;;44.47;;
11039;SDS011;5573;49.592;8.662;2024-03-17T08:08:18;49.78;;;47.20;;
11039;SDS011;5573;49.592;8.662;2024-03-17T08:10:47;48.10;;;45.63;;
11039;SDS011;5573;49.592;8.662;2024-03-17T08:13:14;48.40;;;45.90;;
11039;SDS011;5573;49.592;8.662;2024-03-17T08:15:43;46.90;;;44.47;;
11039;SDS011;5573;49.592;8.662;2024-03-17T08:18:11;44.20;;;41.95;;
11039;SDS011;5573;49.592;8.662;2024-03-17T08:20:38;45.72;;;43.33;;
11039;SDS011;5573;49.592;8.662;2024-03-17T08:23:06;46.20;;;43.67;;
11039;SDS011;5573;49.592;8.662;2024-03-17T08:25:33;48.53;;;45.97;;
11039;SDS011;5573;49.592;8.662;2024-03-17T08:28:00;50.83;;;48.15;;
11039;SDS011;5573;49.592;8.662;2024-03-17T08:30:27;51.60;;;48.92;;
11039;SDS011;5573;49.592;8.662;2024-03-17T08:32:57;57.15;;;54.17;;
11039;SDS011;5573;49.592;8.662;2024-03-17T08:35:24;55.17;;;52.30;;
11039;SDS011;5573;49.592;8.662;2024-03-17T08:37:51;55.88;;;52.95;;
11039;SDS011;5573;49.592;8.662;2024-03-17T08:40:19;53.47;;;50.70;;
11039;SDS011;5573;49.592;8.662;2024-03-17T08:42:46;54.17;;;51.35;;
11039;SDS011;5573;49.592;8.662;2024-03-17T08:45:14;52.95;;;50.15;;
11039;SDS011;5573;49.592;8.662;2024-03-17T08:47:42;58.70;;;55.65;;
11039;SDS011;5573;49.592;8.662;2024-03-17T08:50:10;51.80;;;49.10;;
11039;SDS011;5573;49.592;8.662;2024-03-17T08:52:38;55.38;;;52.50;;
11039;SDS011;5573;49.592;8.662;2024-03-17T08:55:05;61.65;;;58.40;;
11039;SDS011;5573;49.592;8.662;2024-03-17T08:57:35;59.08;;;55.92;;
11039;SDS011;5573;49.592;8.662;2024-03-17T09:00:02;60.67;;;57.53;;
11039;SDS011;5573;49.592;8.662;2024-03-17T09:02:30;59.42;;;56.08;;
11039;SDS011;5573;49.592;8.662;2024-03-17T09:04:57;55.53;;;52.63;;
11039;SDS011;5573;49.592;8.662;2024-03-17T09:07:24;59.33;;;56.17;;
11039;SDS011;5573;49.592;8.662;2024-03-17T09:09:51;54.72;;;51.85;;
11039;SDS011;5573;49.592;8.662;2024-03-17T09:12:18;54.13;;;51.33;;
11039;SDS011;5573;49.592;8.662;2024-03-17T09:14:46;54.88;;;51.97;;
11039;SDS011;5573;49.592;8.662;2024-03-17T09:17:13;52.20;;;49.50;;
11039;SDS011;5573;49.592;8.662;2024-03-17T09:19:40;53.33;;;50.55;;
11039;SDS011;5573;49.592;8.662;2024-03-17T09:22:07;55.40;;;52.42;;
11039;SDS011;5573;49.592;8.662;2024-03-17T09:24:35;54.70;;;51.80;;
11039;SDS011;5573;49.592;8.662;2024-03-17T09:27:02;55.42;;;52.55;;
11039;SDS011;5573;49.592;8.662;2024-03-17T09:29:30;52.28;;;49.45;;
11039;SDS011;5573;49.592;8.662;2024-03-17T09:31:58;53.53;;;50.72;;
11039;SDS011;5573;49.592;8.662;2024-03-17T09:34:25;50.75;;;48.05;;
11039;SDS011;5573;49.592;8.662;2024-03-17T09:36:52;49.03;;;46.42;;
11039;SDS011;5573;49.592;8.662;2024-03-17T09:39:18;53.78;;;51.00;;
11039;SDS011;5573;49.592;8.662;2024-03-17T09:41:47;52.40;;;49.70;;
11039;SDS011;5573;49.592;8.662;2024-03-17T09:44:14;48.80;;;46.28;;
11039;SDS011;5573;49.592;8.662;2024-03-17T09:46:41;54.65;;;51.78;;
11039;SDS011;5573;49.592;8.662;2024-03-17T09:49:09;54.17;;;51.30;;
11039;SDS011;5573;49.592;8.662;2024-03-17T09:51:42;56.83;;;53.88;;
11039;SDS011;5573;49.592;8.662;2024-03-17T09:54:15;59.20;;;56.13;;
11039;SDS011;5573;49.592;8.662;2024-03-17T09:56:43;54.70;;;51.80;;
11039;SDS011;5573;49.592;8.662;2024-03-17T09:59:11;58.15;;;55.08;;
11039;SDS011;5573;49.592;8.662;2024-03-17T10:01:38;56.50;;;53.58;;
11039;SDS011;5573;49.592;8.662;2024-03-17T10:04:05;62.38;;;59.13;;
11039;SDS011;5573;49.592;8.662;2024-03-17T10:06:44;63.33;;;60.05;;
11039;SDS011;5573;49.592;8.662;2024-03-17T10:09:14;62.78;;;59.53;;
11039;SDS011;5573;49.592;8.662;2024-03-17T10:11:46;70.72;;;67.00;;
11039;SDS011;5573;49.592;8.662;2024-03-17T10:14:16;67.35;;;63.88;;
11039;SDS011;5573;49.592;8.662;2024-03-17T10:16:43;61.92;;;58.65;;
11039;SDS011;5573;49.592;8.662;2024-03-17T10:19:11;70.70;;;67.00;;
11039;SDS011;5573;49.592;8.662;2024-03-17T10:21:40;74.35;;;70.50;;
11039;SDS011;5573;49.592;8.662;2024-03-17T10:24:09;72.50;;;68.75;;
11039;SDS011;5573;49.592;8.662;2024-03-17T10:26:46;74.22;;;70.32;;
11039;SDS011;5573;49.592;8.662;2024-03-17T10:29:21;69.70;;;66.13;;
11039;SDS011;5573;49.592;8.662;2024-03-17T10:31:51;74.32;;;70.45;;
11039;SDS011;5573;49.592;8.662;2024-03-17T10:34:18;72.78;;;69.00;;
11039;SDS011;5573;49.592;8.662;2024-03-17T10:36:45;77.28;;;73.18;;
11039;SDS011;5573;49.592;8.662;2024-03-17T10:39:22;73.72;;;69.88;;
11039;SDS011;5573;49.592;8.662;2024-03-17T10:41:59;78.88;;;74.70;;
11039;SDS011;5573;49.592;8.662;2024-03-17T10:44:28;78.30;;;74.20;;
11039;SDS011;5573;49.592;8.662;2024-03-17T10:46:56;78.18;;;74.10;;
11039;SDS011;5573;49.592;8.662;2024-03-17T10:49:26;75.95;;;72.03;;
11039;SDS011;5573;49.592;8.662;2024-03-17T10:51:58;76.78;;;72.78;;
11039;SDS011;5573;49.592;8.662;2024-03-17T10:54:26;81.78;;;77.50;;
11039;SDS011;5573;49.592;8.662;2024-03-17T10:56:54;80.18;;;76.00;;
11039;SDS011;5573;49.592;8.662;2024-03-17T10:59:25;75.90;;;71.95;;
11039;SDS011;5573;49.592;8.662;2024-03-17T11:02:03;72.78;;;69.03;;
11039;SDS011;5573;49.592;8.662;2024-03-17T11:04:42;79.70;;;75.45;;
11039;SDS011;5573;49.592;8.662;2024-03-17T11:07:09;80.35;;;76.20;;
11039;SDS011;5573;49.592;8.662;2024-03-17T11:09:44;88.63;;;84.07;;
11039;SDS011;5573;49.592;8.662;2024-03-17T11:21:04;86.28;;;81.80;;
11039;SDS011;5573;49.592;8.662;2024-03-17T11:23:37;85.32;;;80.82;;
11039;SDS011;5573;49.592;8.662;2024-03-17T11:26:05;86.70;;;82.07;;
11039;SDS011;5573;49.592;8.662;2024-03-17T11:28:46;82.32;;;77.80;;
11039;SDS011;5573;49.592;8.662;2024-03-17T11:37:10;90.43;;;85.43;;
11039;SDS011;5573;49.592;8.662;2024-03-17T11:40:22;84.38;;;79.93;;
11039;SDS011;5573;49.592;8.662;2024-03-17T11:43:00;86.30;;;81.78;;
11039;SDS011;5573;49.592;8.662;2024-03-17T11:45:26;87.50;;;82.82;;
11039;SDS011;5573;49.592;8.662;2024-03-17T11:47:54;91.13;;;86.32;;
11039;SDS011;5573;49.592;8.662;2024-03-17T11:50:20;97.65;;;92.25;;
11039;SDS011;5573;49.592;8.662;2024-03-17T11:52:56;83.82;;;79.43;;
11039;SDS011;5573;49.592;8.662;2024-03-17T11:55:23;88.25;;;83.55;;
11039;SDS011;5573;49.592;8.662;2024-03-17T11:57:55;90.45;;;85.68;;
11039;SDS011;5573;49.592;8.662;2024-03-17T12:00:22;80.80;;;76.43;;
11039;SDS011;5573;49.592;8.662;2024-03-17T12:02:50;81.75;;;77.45;;
11039;SDS011;5573;49.592;8.662;2024-03-17T12:05:17;87.38;;;82.72;;
11039;SDS011;5573;49.592;8.662;2024-03-17T12:07:46;87.95;;;83.38;;
11039;SDS011;5573;49.592;8.662;2024-03-17T12:10:12;78.72;;;74.53;;
11039;SDS011;5573;49.592;8.662;2024-03-17T12:12:40;78.05;;;73.95;;
11039;SDS011;5573;49.592;8.662;2024-03-17T12:15:15;75.28;;;71.18;;
11039;SDS011;5573;49.592;8.662;2024-03-17T12:17:43;81.70;;;77.38;;
11039;SDS011;5573;49.592;8.662;2024-03-17T12:20:16;78.05;;;73.82;;
11039;SDS011;5573;49.592;8.662;2024-03-17T12:22:45;71.50;;;67.60;;
11039;SDS011;5573;49.592;8.662;2024-03-17T12:25:15;76.18;;;72.13;;
11039;SDS011;5573;49.592;8.662;2024-03-17T12:27:44;71.57;;;67.68;;
11039;SDS011;5573;49.592;8.662;2024-03-17T12:30:11;69.25;;;65.65;;
11039;SDS011;5573;49.592;8.662;2024-03-17T12:32:38;70.97;;;67.22;;
11039;SDS011;5573;49.592;8.662;2024-03-17T12:35:12;74.15;;;70.18;;
11039;SDS011;5573;49.592;8.662;2024-03-17T12:37:43;73.82;;;69.82;;
11039;SDS011;5573;49.592;8.662;2024-03-17T12:40:16;70.72;;;66.95;;
11039;SDS011;5573;49.592;8.662;2024-03-17T12:42:47;77.00;;;72.80;;
11039;SDS011;5573;49.592;8.662;2024-03-17T12:45:14;66.75;;;63.20;;
11039;SDS011;5573;49.592;8.662;2024-03-17T12:47:40;64.80;;;61.22;;
11039;SDS011;5573;49.592;8.662;2024-03-17T12:50:13;65.22;;;61.67;;
11039;SDS011;5573;49.592;8.662;2024-03-17T12:52:50;61.65;;;58.22;;
11039;SDS011;5573;49.592;8.662;2024-03-17T12:55:18;69.32;;;65.60;;
11039;SDS011;5573;49.592;8.662;2024-03-17T12:58:07;62.95;;;59.55;;
11039;SDS011;5573;49.592;8.662;2024-03-17T13:00:58;67.20;;;63.40;;
11039;SDS011;5573;49.592;8.662;2024-03-17T13:03:26;63.97;;;60.55;;
11039;SDS011;5573;49.592;8.662;2024-03-17T13:05:57;56.10;;;53.03;;
11039;SDS011;5573;49.592;8.662;2024-03-17T13:08:25;52.47;;;49.65;;
11039;SDS011;5573;49.592;8.662;2024-03-17T13:10:52;59.33;;;56.03;;
11039;SDS011;5573;49.592;8.662;2024-03-17T13:13:19;54.58;;;51.65;;
11039;SDS011;5573;49.592;8.662;2024-03-17T13:15:47;52.17;;;49.33;;
11039;SDS011;5573;49.592;8.662;2024-03-17T13:18:15;57.17;;;54.08;;
11039;SDS011;5573;49.592;8.662;2024-03-17T13:20:45;53.95;;;51.08;;
11039;SDS011;5573;49.592;8.662;2024-03-17T13:23:12;51.30;;;48.58;;
11039;SDS011;5573;49.592;8.662;2024-03-17T13:25:40;62.50;;;59.15;;
11039;SDS011;5573;49.592;8.662;2024-03-17T13:28:09;52.83;;;49.80;;
11039;SDS011;5573;49.592;8.662;2024-03-17T13:30:36;62.35;;;59.05;;
11039;SDS011;5573;49.592;8.662;2024-03-17T13:33:04;59.55;;;56.42;;
11039;SDS011;5573;49.592;8.662;2024-03-17T13:35:34;56.58;;;53.60;;
11039;SDS011;5573;49.592;8.662;2024-03-17T13:38:04;58.95;;;55.80;;
11039;SDS011;5573;49.592;8.662;2024-03-17T13:40:32;66.75;;;63.20;;
11039;SDS011;5573;49.592;8.662;2024-03-17T13:43:01;66.20;;;62.65;;
11039;SDS011;5573;49.592;8.662;2024-03-17T13:45:29;63.30;;;59.90;;
11039;SDS011;5573;49.592;8.662;2024-03-17T13:48:01;68.65;;;65.03;;
11039;SDS011;5573;49.592;8.662;2024-03-17T13:50:30;62.13;;;58.63;;
11039;SDS011;5573;49.592;8.662;2024-03-17T13:52:57;65.18;;;61.60;;
11039;SDS011;5573;49.592;8.662;2024-03-17T13:55:24;68.55;;;64.88;;
11039;SDS011;5573;49.592;8.662;2024-03-17T13:57:52;65.30;;;61.80;;
11039;SDS011;5573;49.592;8.662;2024-03-17T14:00:22;67.97;;;64.28;;
11039;SDS011;5573;49.592;8.662;2024-03-17T14:02:51;60.90;;;57.63;;
11039;SDS011;5573;49.592;8.662;2024-03-17T14:05:20;63.67;;;60.25;;
11039;SDS011;5573;49.592;8.662;2024-03-17T14:07:48;61.65;;;58.30;;
11039;SDS011;5573;49.592;8.662;2024-03-17T14:10:15;65.95;;;62.40;;
11039;SDS011;5573;49.592;8.662;2024-03-17T14:12:45;64.53;;;61.00;;
11039;SDS011;5573;49.592;8.662;2024-03-17T14:15:13;62.38;;;58.97;;
11039;SDS011;5573;49.592;8.662;2024-03-17T14:17:42;55.42;;;52.45;;
11039;SDS011;5573;49.592;8.662;2024-03-17T14:20:10;63.03;;;59.53;;
11039;SDS011;5573;49.592;8.662;2024-03-17T14:22:39;61.92;;;58.63;;
11039;SDS011;5573;49.592;8.662;2024-03-17T14:25:07;62.80;;;59.42;;
11039;SDS011;5573;49.592;8.662;2024-03-17T14:27:37;66.20;;;62.58;;
11039;SDS011;5573;49.592;8.662;2024-03-17T14:30:04;55.28;;;52.33;;
11039;SDS011;5573;49.592;8.662;2024-03-17T14:32:33;59.33;;;56.17;;
11039;SDS011;5573;49.592;8.662;2024-03-17T14:35:01;58.75;;;55.60;;
11039;SDS011;5573;49.592;8.662;2024-03-17T14:37:29;64.15;;;60.72;;
11039;SDS011;5573;49.592;8.662;2024-03-17T14:39:56;66.28;;;62.80;;
11039;SDS011;5573;49.592;8.662;2024-03-17T14:42:23;70.45;;;66.65;;
11039;SDS011;5573;49.592;8.662;2024-03-17T14:44:50;63.53;;;60.08;;
11039;SDS011;5573;49.592;8.662;2024-03-17T14:47:17;60.63;;;57.42;;
11039;SDS011;5573;49.592;8.662;2024-03-17T14:49:43;67.47;;;63.88;;
11039;SDS011;5573;49.592;8.662;2024-03-17T14:52:12;68.68;;;65.03;;
11039;SDS011;5573;49.592;8.662;2024-03-17T14:54:39;63.22;;;59.83;;
11039;SDS011;5573;49.592;8.662;2024-03-17T14:57:06;59.95;;;56.72;;